Beloit, Kansas
Current Conditions -  °F | °C
As of 1:55 PM on Saturday 25 Oct 2014 (Local Time) from KCNK Reporting Station
Clear Clear  
Wind Chill: 79°   Ceiling: Unl
Heat Index: 80°   Visibility: 10mi
Dew Point: 59°   Wind: 9mph
Humidity: 50%   Direction: 110°ESE
Pressure: 30.04"   Gusts: NA
Location:  39.46°N, 98.11°W
Report Text: KCNK 251855Z AUTO 11008KT 10SM CLR 26/15 A3004 RMK AO2 SLP163 T02610150
Loading
Personal Weather Stations






























Interactive Weather Map New forecast layout! Learn more

10-Day Weather Forecast

Advertisements
Track Severe Weather on mobile